createdAt,value
2018-07-23T00:00:33.346Z,25.30
2018-07-23T00:03:06.013Z,23.63
2018-07-23T00:05:37.345Z,25.70
2018-07-23T00:08:09.761Z,24.80
2018-07-23T00:10:42.076Z,23.07
2018-07-23T00:13:14.598Z,24.00
2018-07-23T00:15:47.341Z,24.50
2018-07-23T00:18:19.058Z,24.33
2018-07-23T00:20:51.760Z,19.90
2018-07-23T00:23:24.066Z,24.67
2018-07-23T00:25:56.718Z,23.40
2018-07-23T00:28:28.708Z,26.10
2018-07-23T00:31:01.060Z,23.07
2018-07-23T00:33:34.751Z,26.97
2018-07-23T00:36:06.780Z,26.37
2018-07-23T00:38:39.275Z,23.47
2018-07-23T00:41:15.907Z,22.73
2018-07-23T00:43:48.410Z,23.97
2018-07-23T00:46:20.699Z,24.17
2018-07-23T00:48:53.440Z,25.03
2018-07-23T00:51:25.468Z,25.63
2018-07-23T00:53:57.771Z,27.40
2018-07-23T00:56:30.402Z,28.87
2018-07-23T00:59:01.666Z,29.27
2018-07-23T01:01:33.976Z,28.87
2018-07-23T01:04:06.228Z,28.90
2018-07-23T01:06:38.596Z,28.10
2018-07-23T01:09:12.149Z,25.80
2018-07-23T01:11:44.531Z,26.23
2018-07-23T01:14:16.608Z,26.77
2018-07-23T01:16:51.356Z,27.10
2018-07-23T01:19:23.863Z,30.23
2018-07-23T01:21:56.125Z,31.00
2018-07-23T01:24:28.075Z,29.63
2018-07-23T01:27:00.088Z,33.33
2018-07-23T01:29:32.063Z,34.80
2018-07-23T01:32:04.484Z,32.40
2018-07-23T01:34:37.007Z,35.20
2018-07-23T01:37:11.676Z,33.03
2018-07-23T01:39:43.935Z,34.00
2018-07-23T01:42:16.539Z,33.23
2018-07-23T01:44:48.602Z,32.33
2018-07-23T01:47:20.809Z,33.47
2018-07-23T01:49:52.823Z,32.70
2018-07-23T01:52:26.060Z,32.00
2018-07-23T01:54:58.383Z,32.00
2018-07-23T01:57:31.183Z,34.03
2018-07-23T02:00:03.688Z,35.07
2018-07-23T02:02:36.220Z,34.13
2018-07-23T02:05:09.031Z,36.13
2018-07-23T02:07:41.178Z,35.63
2018-07-23T02:10:14.303Z,36.73
2018-07-23T02:12:46.675Z,34.33
2018-07-23T02:15:19.112Z,33.67
2018-07-23T02:17:51.380Z,33.90
2018-07-23T02:20:23.463Z,36.07
2018-07-23T02:22:55.895Z,35.50
2018-07-23T02:25:28.156Z,39.70
2018-07-23T02:28:00.648Z,38.37
2018-07-23T02:30:32.986Z,37.30
2018-07-23T02:33:05.185Z,39.67
2018-07-23T02:35:37.852Z,38.77
2018-07-23T02:38:10.604Z,41.93
2018-07-23T02:40:42.840Z,38.77
2018-07-23T02:43:14.932Z,37.73
2018-07-23T02:45:46.933Z,36.60
2018-07-23T02:48:19.451Z,35.80
2018-07-23T02:50:51.623Z,36.73
2018-07-23T02:53:23.935Z,35.73
2018-07-23T02:55:56.137Z,36.70
2018-07-23T02:58:30.807Z,37.00
2018-07-23T03:01:03.332Z,40.77
2018-07-23T03:03:35.992Z,41.33
2018-07-23T03:06:11.192Z,43.43
2018-07-23T03:08:43.275Z,40.47
2018-07-23T03:11:15.768Z,42.10
2018-07-23T03:13:48.423Z,40.63
2018-07-23T03:16:21.088Z,41.93
2018-07-23T03:18:53.760Z,43.47
2018-07-23T03:21:25.744Z,42.30
2018-07-23T03:23:56.971Z,42.33
2018-07-23T03:26:29.315Z,44.63
2018-07-23T03:29:01.372Z,45.03
2018-07-23T03:31:33.392Z,45.70
2018-07-23T03:34:05.865Z,43.53
2018-07-23T03:36:38.012Z,47.33
2018-07-23T03:39:11.815Z,50.23
2018-07-23T03:41:43.947Z,49.90
2018-07-23T03:44:15.903Z,48.73
2018-07-23T03:46:48.227Z,52.70
2018-07-23T03:49:20.204Z,49.73
2018-07-23T03:51:52.476Z,48.83
2018-07-23T03:54:24.805Z,51.03
2018-07-23T03:56:56.807Z,50.20
2018-07-23T03:59:29.072Z,50.03
2018-07-23T04:02:07.291Z,47.47
2018-07-23T04:04:39.924Z,48.77
2018-07-23T04:07:12.504Z,48.40
2018-07-23T04:09:44.840Z,46.90
2018-07-23T04:12:17.088Z,44.23
2018-07-23T04:14:49.496Z,45.90
2018-07-23T04:17:21.580Z,45.83
2018-07-23T04:19:53.532Z,44.60
2018-07-23T04:22:26.120Z,44.83
2018-07-23T04:24:58.400Z,45.17
2018-07-23T04:27:30.481Z,47.03
2018-07-23T04:30:02.784Z,47.57
2018-07-23T04:32:35.936Z,47.67
2018-07-23T04:35:08.232Z,47.10
2018-07-23T04:37:40.712Z,47.93
2018-07-23T04:40:12.971Z,44.73
2018-07-23T04:42:45.300Z,45.97
2018-07-23T04:45:19.760Z,44.93
2018-07-23T04:47:52.125Z,42.77
2018-07-23T04:50:24.324Z,41.60
2018-07-23T04:52:56.332Z,42.47
2018-07-23T04:55:28.472Z,40.07
2018-07-23T04:58:00.905Z,40.10
2018-07-23T05:00:32.888Z,37.77
2018-07-23T05:03:05.052Z,38.30
2018-07-23T05:05:37.477Z,37.33
2018-07-23T05:08:09.695Z,36.43
2018-07-23T05:10:41.908Z,33.50
2018-07-23T05:13:14.369Z,32.03
2018-07-23T05:15:46.325Z,31.37
2018-07-23T05:18:18.730Z,29.77
2018-07-23T05:20:50.848Z,27.83
2018-07-23T05:23:22.880Z,27.43
2018-07-23T05:25:55.053Z,23.23
2018-07-23T05:28:26.999Z,21.60
2018-07-23T05:30:59.021Z,20.23
2018-07-23T05:33:31.040Z,20.23
2018-07-23T05:36:03.380Z,20.33
2018-07-23T05:38:35.572Z,21.40
2018-07-23T05:41:07.843Z,20.60
2018-07-23T05:43:40.211Z,19.43
2018-07-23T05:46:12.231Z,18.27
2018-07-23T05:48:44.356Z,17.70
2018-07-23T05:51:16.759Z,16.97
2018-07-23T05:53:48.867Z,17.33
2018-07-23T05:56:20.853Z,18.00
2018-07-23T05:58:53.029Z,17.03
2018-07-23T06:01:25.131Z,18.17
2018-07-23T06:03:57.480Z,16.73
2018-07-23T06:06:29.530Z,13.17
2018-07-23T06:09:01.483Z,12.50
2018-07-23T06:11:33.747Z,11.97
2018-07-23T06:14:06.141Z,11.87
2018-07-23T06:16:38.179Z,13.53
2018-07-23T06:19:10.253Z,11.70
2018-07-23T06:21:42.279Z,12.20
2018-07-23T06:24:14.521Z,10.67
2018-07-23T06:26:46.512Z,10.60
2018-07-23T06:29:18.500Z,10.80
2018-07-23T06:31:50.852Z,9.90
2018-07-23T06:34:22.932Z,10.33
2018-07-23T06:36:54.832Z,8.97
2018-07-23T06:39:26.940Z,9.20
2018-07-23T06:41:59.596Z,7.93
2018-07-23T06:44:31.635Z,8.00
2018-07-23T06:47:03.863Z,7.60
2018-07-23T06:49:36.045Z,7.27
2018-07-23T06:52:08.476Z,7.17
2018-07-23T06:54:40.843Z,6.97
2018-07-23T06:57:12.948Z,6.20
2018-07-23T06:59:48.894Z,5.97
2018-07-23T07:02:20.895Z,6.40
2018-07-23T07:04:53.226Z,5.57
2018-07-23T07:07:25.223Z,5.60
2018-07-23T07:09:57.313Z,4.50
2018-07-23T07:12:29.820Z,4.53
2018-07-23T07:15:02.429Z,5.20
2018-07-23T07:17:34.407Z,5.30
2018-07-23T07:20:06.881Z,4.73
2018-07-23T07:22:38.890Z,5.20
2018-07-23T07:25:11.344Z,5.50
2018-07-23T07:27:43.453Z,5.50
2018-07-23T07:30:15.890Z,5.50
2018-07-23T07:32:48.544Z,5.30
2018-07-23T07:35:21.596Z,4.97
2018-07-23T07:37:53.953Z,5.80
2018-07-23T07:40:25.979Z,5.83
2018-07-23T07:42:58.553Z,7.30
2018-07-23T07:45:35.135Z,6.30
2018-07-23T07:48:14.085Z,8.00
2018-07-23T07:50:52.816Z,7.93
2018-07-23T07:53:30.056Z,7.70
2018-07-23T07:56:06.540Z,7.77
2018-07-23T07:58:42.823Z,7.33
2018-07-23T08:01:17.772Z,8.23
2018-07-23T08:03:49.196Z,7.80
2018-07-23T08:06:21.127Z,6.80
2018-07-23T08:08:53.396Z,5.97
2018-07-23T08:11:25.736Z,6.20
2018-07-23T08:13:57.768Z,7.07
2018-07-23T08:16:31.205Z,6.77
2018-07-23T08:19:03.296Z,6.30
2018-07-23T08:21:35.538Z,5.57
2018-07-23T08:24:07.656Z,5.90
2018-07-23T08:26:40.096Z,6.60
2018-07-23T08:29:12.202Z,7.50
2018-07-23T08:31:44.350Z,6.77
2018-07-23T08:34:16.984Z,6.23
2018-07-23T08:36:49.589Z,6.70
2018-07-23T08:39:21.757Z,6.17
2018-07-23T08:41:54.781Z,5.70
2018-07-23T08:44:28.744Z,5.83
2018-07-23T08:47:02.308Z,5.57
2018-07-23T08:49:35.647Z,5.00
2018-07-23T08:52:10.868Z,5.07
2018-07-23T08:54:44.934Z,5.30
2018-07-23T08:57:17.990Z,4.80
2018-07-23T08:59:51.394Z,6.17
2018-07-23T09:02:24.869Z,5.87
2018-07-23T09:04:57.904Z,5.53
2018-07-23T09:07:30.093Z,5.73
2018-07-23T09:10:02.482Z,5.20
2018-07-23T09:12:34.632Z,5.30
2018-07-23T09:15:06.713Z,5.23
2018-07-23T09:17:38.854Z,5.60
2018-07-23T09:20:11.124Z,4.60
2018-07-23T09:22:43.696Z,4.40
2018-07-23T09:25:15.774Z,5.03
2018-07-23T09:27:48.566Z,4.57
2018-07-23T09:30:25.477Z,4.80
2018-07-23T09:32:57.938Z,4.50
2018-07-23T09:35:29.982Z,3.83
2018-07-23T09:38:02.021Z,3.43
2018-07-23T09:40:34.809Z,3.20
2018-07-23T09:43:09.442Z,3.77
2018-07-23T09:45:42.071Z,4.20
2018-07-23T09:48:14.859Z,3.90
2018-07-23T09:50:48.050Z,4.37
2018-07-23T09:53:21.308Z,4.10
2018-07-23T09:55:54.042Z,4.10
2018-07-23T09:58:26.756Z,4.17
2018-07-23T10:01:03.236Z,3.87
2018-07-23T10:03:36.039Z,3.53
2018-07-23T10:06:08.142Z,3.80
2018-07-23T10:12:09.140Z,3.50
2018-07-23T10:14:39.911Z,3.40
2018-07-23T10:17:12.320Z,3.90
2018-07-23T10:19:42.930Z,4.00
2018-07-23T10:22:13.521Z,3.77
2018-07-23T10:24:44.177Z,3.87
2018-07-23T10:27:14.754Z,4.17
2018-07-23T10:29:45.654Z,3.90
2018-07-23T10:32:16.373Z,3.50
2018-07-23T10:34:46.914Z,3.47
2018-07-23T10:37:19.395Z,3.70
2018-07-23T10:40:07.479Z,3.97
2018-07-23T10:42:41.594Z,3.40
2018-07-23T10:48:10.441Z,4.17
2018-07-23T10:50:41.497Z,4.13
2018-07-23T10:53:12.085Z,4.50
2018-07-23T10:55:42.641Z,4.27
2018-07-23T10:58:13.269Z,3.80
2018-07-23T11:00:43.852Z,3.80
2018-07-23T11:03:15.675Z,3.87
2018-07-23T11:05:47.238Z,3.90
2018-07-23T11:08:18.175Z,3.67
2018-07-23T11:10:49.104Z,4.50
2018-07-23T11:13:20.077Z,3.90
2018-07-23T11:15:50.658Z,4.10
2018-07-23T11:18:21.817Z,4.03
2018-07-23T11:20:52.417Z,3.70
2018-07-23T11:23:32.809Z,4.53
2018-07-23T11:26:04.364Z,4.57
2018-07-23T11:28:36.674Z,3.93
2018-07-23T11:31:07.377Z,3.60
2018-07-23T11:33:38.149Z,4.07
2018-07-23T11:36:08.733Z,4.00
2018-07-23T11:38:39.429Z,3.80
2018-07-23T11:41:10.033Z,3.43
2018-07-23T11:43:40.647Z,3.30
2018-07-23T11:46:24.426Z,3.90
2018-07-23T11:48:42.394Z,3.97
2018-07-23T11:51:13.408Z,3.43
2018-07-23T11:53:44.748Z,3.33
2018-07-23T11:56:15.388Z,3.30
2018-07-23T11:58:46.184Z,3.30
2018-07-23T12:01:16.742Z,4.00
2018-07-23T12:03:47.404Z,3.50
2018-07-23T12:06:18.021Z,3.17
2018-07-23T12:08:48.878Z,3.60
2018-07-23T12:11:20.486Z,3.10
2018-07-23T12:13:52.822Z,3.00
2018-07-23T12:16:23.733Z,3.17
2018-07-23T12:18:54.562Z,3.00
2018-07-23T12:21:25.087Z,3.30
2018-07-23T12:23:56.467Z,3.67
2018-07-23T12:26:27.540Z,3.70
2018-07-23T12:28:58.314Z,3.30
2018-07-23T12:31:28.959Z,2.40
2018-07-23T12:33:59.964Z,3.33
2018-07-23T12:36:30.557Z,4.17
2018-07-23T12:39:01.150Z,3.30
2018-07-23T12:41:32.701Z,3.50
2018-07-23T12:44:03.403Z,3.20
2018-07-23T12:46:33.986Z,3.50
2018-07-23T12:49:05.182Z,2.60
2018-07-23T12:51:35.885Z,3.67
2018-07-23T12:54:06.601Z,2.73
2018-07-23T12:56:37.150Z,2.97
2018-07-23T12:59:07.794Z,3.03
2018-07-23T13:01:38.711Z,3.10
2018-07-23T13:04:09.434Z,3.20
2018-07-23T13:06:39.981Z,2.80
2018-07-23T13:09:12.830Z,3.23
2018-07-23T13:11:43.718Z,3.27
2018-07-23T13:14:14.725Z,3.60
2018-07-23T13:16:45.420Z,2.90
2018-07-23T13:19:16.922Z,2.90
2018-07-23T13:21:47.554Z,3.30
2018-07-23T13:24:18.421Z,3.47
2018-07-23T13:26:49.317Z,2.73
2018-07-23T13:29:21.918Z,3.03
2018-07-23T13:31:54.009Z,2.70
2018-07-23T13:34:25.992Z,2.87
2018-07-23T13:36:58.880Z,2.97
2018-07-23T13:39:30.038Z,3.37
2018-07-23T13:42:03.195Z,3.20
2018-07-23T13:44:35.881Z,2.90
2018-07-23T13:47:08.089Z,2.50
2018-07-23T13:49:39.560Z,2.90
2018-07-23T13:52:10.950Z,3.07
2018-07-23T13:54:41.777Z,3.03
2018-07-23T13:57:17.709Z,3.47
2018-07-23T13:59:49.420Z,4.07
2018-07-23T14:02:19.987Z,3.00
2018-07-23T14:04:50.971Z,2.77
2018-07-23T14:07:21.658Z,2.90
2018-07-23T14:09:52.193Z,2.90
2018-07-23T14:12:23.188Z,2.47
2018-07-23T14:14:54.157Z,2.57
2018-07-23T14:17:24.706Z,2.90
2018-07-23T14:19:56.070Z,2.37
2018-07-23T14:22:26.741Z,2.60
2018-07-23T14:24:57.621Z,2.20
2018-07-23T14:27:28.558Z,2.30
2018-07-23T14:29:59.677Z,2.60
2018-07-23T14:32:30.239Z,2.67
2018-07-23T14:35:00.970Z,2.30
2018-07-23T14:37:31.556Z,2.30
2018-07-23T14:40:02.126Z,2.40
2018-07-23T14:42:33.361Z,2.40
2018-07-23T14:45:04.341Z,2.30
2018-07-23T14:47:35.240Z,2.40
2018-07-23T14:50:06.622Z,2.33
2018-07-23T14:52:37.165Z,2.40
2018-07-23T14:55:07.914Z,1.90
2018-07-23T14:57:38.499Z,2.00
2018-07-23T15:00:09.588Z,2.30
2018-07-23T15:02:40.367Z,2.50
2018-07-23T15:05:11.603Z,2.80
2018-07-23T15:07:42.781Z,2.50
2018-07-23T15:10:13.605Z,2.50
2018-07-23T15:12:44.473Z,2.20
2018-07-23T15:15:15.786Z,2.33
2018-07-23T15:17:46.648Z,2.10
2018-07-23T15:20:17.489Z,2.30
2018-07-23T15:22:48.061Z,2.35
2018-07-23T15:25:18.746Z,2.10
2018-07-23T15:27:50.237Z,2.00
2018-07-23T15:30:20.885Z,2.10
2018-07-23T15:32:51.425Z,2.30
2018-07-23T15:35:21.979Z,2.27
2018-07-23T15:37:52.518Z,2.17
2018-07-23T15:40:23.226Z,2.13
2018-07-23T15:42:53.975Z,2.10
2018-07-23T15:45:25.022Z,1.90
2018-07-23T15:47:56.040Z,2.23
2018-07-23T15:50:26.607Z,2.40
2018-07-23T15:52:57.101Z,2.30
2018-07-23T15:55:27.788Z,2.30
2018-07-23T15:57:58.776Z,2.30
2018-07-23T16:00:29.345Z,2.40
2018-07-23T16:02:59.930Z,2.70
2018-07-23T16:05:30.772Z,2.23
2018-07-23T16:08:01.362Z,2.00
2018-07-23T16:10:32.089Z,2.37
2018-07-23T16:13:03.077Z,2.10
2018-07-23T16:15:33.908Z,2.20
2018-07-23T16:18:04.797Z,2.30
2018-07-23T16:20:35.876Z,2.30
2018-07-23T16:23:06.416Z,2.60
2018-07-23T16:25:37.011Z,2.20
2018-07-23T16:28:07.675Z,8.97
2018-07-23T16:30:38.629Z,2.10
2018-07-23T16:33:09.548Z,2.20
2018-07-23T16:35:40.296Z,2.30
2018-07-23T16:38:10.940Z,2.17
2018-07-23T16:40:41.601Z,2.57
2018-07-23T16:43:12.511Z,2.27
2018-07-23T16:45:43.375Z,2.30
2018-07-23T16:48:13.902Z,2.30
2018-07-23T16:50:45.128Z,2.23
2018-07-23T16:53:15.668Z,2.00
2018-07-23T16:55:46.276Z,2.30
2018-07-23T16:58:17.365Z,2.13
2018-07-23T17:00:47.996Z,2.00
2018-07-23T17:03:18.540Z,2.00
2018-07-23T17:05:49.296Z,1.90
2018-07-23T17:08:19.888Z,2.00
2018-07-23T17:10:50.968Z,2.10
2018-07-23T17:13:21.506Z,2.03
2018-07-23T17:15:52.415Z,2.00
2018-07-23T17:18:23.344Z,2.10
2018-07-23T17:20:54.261Z,2.23
2018-07-23T17:23:24.827Z,2.10
2018-07-23T17:25:55.443Z,2.30
2018-07-23T17:28:25.966Z,2.23
2018-07-23T17:30:56.908Z,2.50
2018-07-23T17:33:27.488Z,2.53
2018-07-23T17:35:58.189Z,2.20
2018-07-23T17:38:29.160Z,2.53
2018-07-23T17:40:59.754Z,2.37
2018-07-23T17:43:30.288Z,2.70
2018-07-23T17:46:01.437Z,2.73
2018-07-23T17:48:31.998Z,2.80
2018-07-23T17:51:03.480Z,2.60
2018-07-23T17:53:34.480Z,2.60
2018-07-23T17:56:05.207Z,2.40
2018-07-23T17:58:35.853Z,2.60
2018-07-23T18:01:06.947Z,2.50
2018-07-23T18:03:37.613Z,2.60
2018-07-23T18:06:08.381Z,2.43
2018-07-23T18:08:38.993Z,2.33
2018-07-23T18:11:09.568Z,2.33
2018-07-23T18:13:40.576Z,2.30
2018-07-23T18:16:11.281Z,2.20
2018-07-23T18:18:41.848Z,2.20
2018-07-23T18:21:13.108Z,2.20
2018-07-23T18:23:43.679Z,2.20
2018-07-23T18:26:14.476Z,2.30
2018-07-23T18:28:45.331Z,2.30
2018-07-23T18:31:15.873Z,2.20
2018-07-23T18:33:46.442Z,2.50
2018-07-23T18:36:17.932Z,2.50
2018-07-23T18:38:48.808Z,2.27
2018-07-23T18:41:19.473Z,2.23
2018-07-23T18:43:50.632Z,2.53
2018-07-23T18:46:21.492Z,2.47
2018-07-23T18:49:29.729Z,2.63
2018-07-23T18:52:00.336Z,2.53
2018-07-23T18:54:32.336Z,2.50
2018-07-23T18:57:04.188Z,2.57
2018-07-23T18:59:35.010Z,2.60
2018-07-23T19:02:07.289Z,2.60
2018-07-23T19:04:38.021Z,2.20
2018-07-23T19:07:09.931Z,2.90
2018-07-23T19:09:40.749Z,2.40
2018-07-23T19:12:11.816Z,3.10
2018-07-23T19:14:42.721Z,2.40
2018-07-23T19:17:14.785Z,2.40
2018-07-23T19:19:45.365Z,2.23
2018-07-23T19:22:16.253Z,2.67
2018-07-23T19:24:47.160Z,2.57
2018-07-23T19:27:17.773Z,2.60
2018-07-23T19:29:48.416Z,2.87
2018-07-23T19:32:19.202Z,2.83
2018-07-23T19:34:50.202Z,2.80
2018-07-23T19:37:20.855Z,2.67
2018-07-23T19:39:51.556Z,2.83
2018-07-23T19:42:22.146Z,2.70
2018-07-23T19:44:53.076Z,2.60
2018-07-23T19:47:24.389Z,2.60
2018-07-23T19:49:54.944Z,2.90
2018-07-23T19:52:25.678Z,2.80
2018-07-23T19:54:56.192Z,2.97
2018-07-23T19:57:27.014Z,2.80
2018-07-23T19:59:57.560Z,3.10
2018-07-23T20:02:28.232Z,3.10
2018-07-23T20:04:59.257Z,3.27
2018-07-23T20:07:29.791Z,3.17
2018-07-23T20:10:00.333Z,3.20
2018-07-23T20:12:30.913Z,3.10
2018-07-23T20:15:01.485Z,3.30
2018-07-23T20:17:32.685Z,3.30
2018-07-23T20:20:03.228Z,3.20
2018-07-23T20:22:34.156Z,3.20
2018-07-23T20:25:04.750Z,3.07
2018-07-23T20:27:35.317Z,3.10
2018-07-23T20:30:06.641Z,3.20
2018-07-23T20:32:37.185Z,3.67
2018-07-23T20:35:07.941Z,3.53
2018-07-23T20:37:38.717Z,3.40
2018-07-23T20:40:09.410Z,3.53
2018-07-23T20:42:40.574Z,3.20
2018-07-23T20:45:11.176Z,3.60
2018-07-23T20:47:42.061Z,3.60
2018-07-23T20:50:13.053Z,3.70
2018-07-23T20:52:43.933Z,3.73
2018-07-23T20:55:14.661Z,3.30
2018-07-23T20:57:45.670Z,3.87
2018-07-23T21:00:16.457Z,3.80
2018-07-23T21:02:47.149Z,4.07
2018-07-23T21:05:18.066Z,3.63
2018-07-23T21:07:48.757Z,3.90
2018-07-23T21:10:19.357Z,3.70
2018-07-23T21:12:50.524Z,3.97
2018-07-23T21:15:21.119Z,4.40
2018-07-23T21:17:51.972Z,3.50
2018-07-23T21:20:22.905Z,3.80
2018-07-23T21:22:53.489Z,6.27
2018-07-23T21:25:24.332Z,6.80
2018-07-23T21:27:55.077Z,6.70
2018-07-23T21:30:25.663Z,5.17
2018-07-23T21:32:56.757Z,5.80
2018-07-23T21:35:27.389Z,6.23
2018-07-23T21:37:57.973Z,5.07
2018-07-23T21:40:28.565Z,4.77
2018-07-23T21:42:59.692Z,5.30
2018-07-23T21:45:30.372Z,5.17
2018-07-23T21:48:01.204Z,4.63
2018-07-23T21:50:32.469Z,4.50
2018-07-23T21:53:03.186Z,4.00
2018-07-23T21:55:33.756Z,6.00
2018-07-23T21:58:05.279Z,8.87
2018-07-23T22:00:36.714Z,10.17
2018-07-23T22:03:07.351Z,9.17
2018-07-23T22:05:38.352Z,6.70
2018-07-23T22:08:08.972Z,5.37
2018-07-23T22:10:39.496Z,5.00
2018-07-23T22:13:10.430Z,5.40
2018-07-23T22:15:41.065Z,5.00
2018-07-23T22:18:11.931Z,6.37
2018-07-23T22:20:42.954Z,6.40
2018-07-23T22:23:13.726Z,6.10
2018-07-23T22:25:44.284Z,6.20
2018-07-23T22:28:15.269Z,5.87
2018-07-23T22:30:45.899Z,5.40
2018-07-23T22:33:16.536Z,5.57
2018-07-23T22:35:47.551Z,5.13
2018-07-23T22:38:18.392Z,5.70
2018-07-23T22:40:48.944Z,6.23
2018-07-23T22:43:19.821Z,7.10
2018-07-23T22:45:50.347Z,6.47
2018-07-23T22:48:21.768Z,6.10
2018-07-23T22:50:52.372Z,6.60
2018-07-23T22:53:23.068Z,7.60
2018-07-23T22:55:53.637Z,8.70
2018-07-23T22:58:24.392Z,10.37
2018-07-23T23:00:55.892Z,9.00
2018-07-23T23:03:26.812Z,7.03
2018-07-23T23:05:57.661Z,6.23
2018-07-23T23:08:29.205Z,6.73
2018-07-23T23:10:59.749Z,8.23
2018-07-23T23:13:30.332Z,11.47
2018-07-23T23:16:00.425Z,8.83
2018-07-23T23:18:31.112Z,7.27
2018-07-23T23:21:01.676Z,6.50
2018-07-23T23:23:32.876Z,6.00
2018-07-23T23:26:03.525Z,7.73
2018-07-23T23:28:34.212Z,10.50
2018-07-23T23:31:04.751Z,8.67
2018-07-23T23:33:35.653Z,6.37
2018-07-23T23:36:06.227Z,5.80
2018-07-23T23:38:37.337Z,6.80
2018-07-23T23:41:07.924Z,6.70
2018-07-23T23:43:38.512Z,5.77
2018-07-23T23:46:09.147Z,6.10
2018-07-23T23:48:40.248Z,5.93
2018-07-23T23:51:10.776Z,6.43
2018-07-23T23:53:40.808Z,9.20
2018-07-23T23:56:12.134Z,8.97
2018-07-23T23:58:42.296Z,6.90
